North Conway, NH (03860)

3:51 AM EDT on September 02, 2015 (GMT -0400)
Computer Port Discount Beverage, North Conway | | Change Station
CLOSE
Current Station
Personal Weather Station
Location: Conway, NH
Elevation: 495 ft
Nearby Weather Stations

Elev 495 ft 44.02 °N, 71.11 °W | Updated 15 seconds ago

Clear
Clear
59.7 °F
Feels Like 59.7 °F
N
0.9
Wind Variable Wind from NNW
Gusts 2.0 mph

Today
High -- | Low -- °F
--% Chance of Precip.
Yesterday
High -- | Low -- °F
Precip. -- in
6:08 AM 7:19 PM
Waning Gibbous, 82% visible
Pressure 30.00 in
Visibility 8.0 miles
Clouds Few 200 ft
Dew Point 50 °F
Humidity 71%
Rainfall 0.00 in
Snow Depth Not available.
UV 0 out of 12
Pollen 8.30 out of 12
Air Quality Not available.
Flu Activity Not available.
SPECI KIZG 020744Z AUTO 00000KT 8SM FEW002 12/12 A3000 RMK AO2 T01170117
Pressure 30.00 in
Visibility 8.0 miles
Clouds Few 200 ft
Dew Point 50 °F
Humidity 71%
Rainfall 0.00 in
Snow Depth Not available.
UV 0 out of 12
Pollen 8.30 out of 12
Air Quality Not available.
Flu Activity Not available.
SPECI KIZG 020744Z AUTO 00000KT 8SM FEW002 12/12 A3000 RMK AO2 T01170117

10-Day Weather Forecast

×

Almanac

Astronomy

Sep. 02, 2015 Rise Set
Actual Time
Civil Twilight
Nautical Twilight
Astronomical Twilight
Moon
Length of Visible Light
Length of Day
Tomorrow will be .
, % of the Moon is Illuminated

Today's Extremes

State Highs State Lows

Community

WunderPhotos

Upload Photos

1,851,723 photos uploaded!

WunderBlogs® & News

Nearby

Air Quality

  Air Quality AQ Index Pollutant
Not available.

Snow Depth

Station Depth Elevation

Earthquake Activity

City Distance Mag. Time & Date
Minimum magnitude displayed is 2.5.

Coastal Water Temperatures

Place Temperature

Stations

Nearby Weather Stations

Station Location Temp. Windchill Dew Point Humidity Wind Precip. Elev Updated Type